Cherry Valley, California
Current Conditions -  °F | °C
As of 5:58 AM on Thursday 29 Jan 2015 (Local Time) from KRIV Reporting Station
Few Clouds Few Clouds  
Wind Chill: 55°   Ceiling: Unl
Heat Index: 55°   Visibility: 10mi
Dew Point: 46°   Wind: 5mph
Humidity: 71%   Direction: 320°NW
Pressure: 30.05"   Gusts: NA
Location:  33.9205°N, 116.973°W
Report Text: KRIV 291358Z AUTO 32004KT 10SM FEW140 13/08 A3005 RMK AO2 SLP171 T01280077
Loading
Personal Weather Stations






























Interactive Weather Map New forecast layout! Learn more

10-Day Weather Forecast

Advertisements
Track Severe Weather on mobile